sensor_id;sensor_type;location;lat;lon;timestamp;P1;durP1;ratioP1;P2;durP2;ratioP2
32734;SDS011;19112;51.076;3.706;2023-01-15T00:01:27;12.57;;;2.20;;
32734;SDS011;19112;51.076;3.706;2023-01-15T00:03:56;11.77;;;2.30;;
32734;SDS011;19112;51.076;3.706;2023-01-15T00:06:24;18.10;;;2.10;;
32734;SDS011;19112;51.076;3.706;2023-01-15T00:08:51;14.63;;;2.50;;
32734;SDS011;19112;51.076;3.706;2023-01-15T00:11:17;21.55;;;2.65;;
32734;SDS011;19112;51.076;3.706;2023-01-15T00:13:44;23.52;;;2.60;;
32734;SDS011;19112;51.076;3.706;2023-01-15T00:16:12;26.08;;;4.32;;
32734;SDS011;19112;51.076;3.706;2023-01-15T00:18:48;16.90;;;2.40;;
32734;SDS011;19112;51.076;3.706;2023-01-15T00:21:18;13.15;;;2.20;;
32734;SDS011;19112;51.076;3.706;2023-01-15T00:23:46;14.68;;;2.38;;
32734;SDS011;19112;51.076;3.706;2023-01-15T00:26:32;26.05;;;2.72;;
32734;SDS011;19112;51.076;3.706;2023-01-15T00:29:18;17.80;;;3.17;;
32734;SDS011;19112;51.076;3.706;2023-01-15T00:31:58;23.10;;;2.97;;
32734;SDS011;19112;51.076;3.706;2023-01-15T00:34:26;23.00;;;2.50;;
32734;SDS011;19112;51.076;3.706;2023-01-15T00:36:53;17.40;;;2.30;;
32734;SDS011;19112;51.076;3.706;2023-01-15T00:39:19;14.88;;;2.90;;
32734;SDS011;19112;51.076;3.706;2023-01-15T00:41:45;22.67;;;2.70;;
32734;SDS011;19112;51.076;3.706;2023-01-15T00:44:11;16.48;;;3.25;;
32734;SDS011;19112;51.076;3.706;2023-01-15T00:46:37;19.08;;;3.20;;
32734;SDS011;19112;51.076;3.706;2023-01-15T00:49:03;13.27;;;2.65;;
32734;SDS011;19112;51.076;3.706;2023-01-15T00:51:29;12.88;;;2.63;;
32734;SDS011;19112;51.076;3.706;2023-01-15T00:53:55;14.48;;;2.00;;
32734;SDS011;19112;51.076;3.706;2023-01-15T00:56:21;19.27;;;2.70;;
32734;SDS011;19112;51.076;3.706;2023-01-15T00:58:47;14.38;;;2.38;;
32734;SDS011;19112;51.076;3.706;2023-01-15T01:01:13;23.15;;;3.55;;
32734;SDS011;19112;51.076;3.706;2023-01-15T01:03:39;18.27;;;2.47;;
32734;SDS011;19112;51.076;3.706;2023-01-15T01:06:05;20.92;;;2.33;;
32734;SDS011;19112;51.076;3.706;2023-01-15T01:08:31;12.55;;;2.40;;
32734;SDS011;19112;51.076;3.706;2023-01-15T01:11:03;19.02;;;2.65;;
32734;SDS011;19112;51.076;3.706;2023-01-15T01:13:33;21.05;;;2.42;;
32734;SDS011;19112;51.076;3.706;2023-01-15T01:16:00;21.65;;;3.42;;
32734;SDS011;19112;51.076;3.706;2023-01-15T01:18:26;18.55;;;2.70;;
32734;SDS011;19112;51.076;3.706;2023-01-15T01:20:52;16.80;;;2.45;;
32734;SDS011;19112;51.076;3.706;2023-01-15T01:23:19;16.70;;;2.92;;
32734;SDS011;19112;51.076;3.706;2023-01-15T01:25:46;16.95;;;2.38;;
32734;SDS011;19112;51.076;3.706;2023-01-15T01:28:12;22.33;;;2.55;;
32734;SDS011;19112;51.076;3.706;2023-01-15T01:30:38;21.08;;;2.90;;
32734;SDS011;19112;51.076;3.706;2023-01-15T01:33:04;12.93;;;2.38;;
32734;SDS011;19112;51.076;3.706;2023-01-15T01:35:30;21.33;;;2.70;;
32734;SDS011;19112;51.076;3.706;2023-01-15T01:37:56;16.98;;;2.42;;
32734;SDS011;19112;51.076;3.706;2023-01-15T01:40:21;19.55;;;2.80;;
32734;SDS011;19112;51.076;3.706;2023-01-15T01:42:47;26.85;;;4.57;;
32734;SDS011;19112;51.076;3.706;2023-01-15T01:47:54;16.05;;;2.40;;
32734;SDS011;19112;51.076;3.706;2023-01-15T01:50:25;20.85;;;2.47;;
32734;SDS011;19112;51.076;3.706;2023-01-15T01:52:58;19.23;;;3.03;;
32734;SDS011;19112;51.076;3.706;2023-01-15T01:55:35;18.52;;;2.65;;
32734;SDS011;19112;51.076;3.706;2023-01-15T01:58:03;19.92;;;2.60;;
32734;SDS011;19112;51.076;3.706;2023-01-15T02:00:32;16.38;;;2.58;;
32734;SDS011;19112;51.076;3.706;2023-01-15T02:03:01;17.42;;;2.65;;
32734;SDS011;19112;51.076;3.706;2023-01-15T02:05:30;21.65;;;3.40;;
32734;SDS011;19112;51.076;3.706;2023-01-15T02:07:59;10.98;;;3.08;;
32734;SDS011;19112;51.076;3.706;2023-01-15T02:10:25;19.05;;;3.40;;
32734;SDS011;19112;51.076;3.706;2023-01-15T02:15:47;21.25;;;4.43;;
32734;SDS011;19112;51.076;3.706;2023-01-15T02:23:58;16.02;;;2.67;;
32734;SDS011;19112;51.076;3.706;2023-01-15T02:29:29;19.42;;;3.08;;
32734;SDS011;19112;51.076;3.706;2023-01-15T02:32:06;12.30;;;2.40;;
32734;SDS011;19112;51.076;3.706;2023-01-15T02:34:42;14.80;;;2.70;;
32734;SDS011;19112;51.076;3.706;2023-01-15T02:37:27;22.13;;;2.88;;
32734;SDS011;19112;51.076;3.706;2023-01-15T02:39:58;17.45;;;2.60;;
32734;SDS011;19112;51.076;3.706;2023-01-15T02:42:26;16.40;;;2.50;;
32734;SDS011;19112;51.076;3.706;2023-01-15T02:44:54;17.08;;;2.35;;
32734;SDS011;19112;51.076;3.706;2023-01-15T02:47:25;18.10;;;2.58;;
32734;SDS011;19112;51.076;3.706;2023-01-15T02:49:58;19.40;;;2.63;;
32734;SDS011;19112;51.076;3.706;2023-01-15T02:52:30;17.55;;;3.13;;
32734;SDS011;19112;51.076;3.706;2023-01-15T02:55:09;15.98;;;3.03;;
32734;SDS011;19112;51.076;3.706;2023-01-15T02:57:42;20.23;;;3.08;;
32734;SDS011;19112;51.076;3.706;2023-01-15T03:00:13;16.73;;;3.17;;
32734;SDS011;19112;51.076;3.706;2023-01-15T03:02:43;18.90;;;4.25;;
32734;SDS011;19112;51.076;3.706;2023-01-15T03:05:29;19.50;;;2.63;;
32734;SDS011;19112;51.076;3.706;2023-01-15T03:08:04;20.25;;;3.30;;
32734;SDS011;19112;51.076;3.706;2023-01-15T03:10:45;19.85;;;2.90;;
32734;SDS011;19112;51.076;3.706;2023-01-15T03:19:08;17.05;;;3.50;;
32734;SDS011;19112;51.076;3.706;2023-01-15T03:22:08;17.88;;;3.00;;
32734;SDS011;19112;51.076;3.706;2023-01-15T03:27:12;18.98;;;2.80;;
32734;SDS011;19112;51.076;3.706;2023-01-15T03:29:44;12.02;;;2.47;;
32734;SDS011;19112;51.076;3.706;2023-01-15T03:32:27;15.82;;;2.90;;
32734;SDS011;19112;51.076;3.706;2023-01-15T03:34:55;23.02;;;3.08;;
32734;SDS011;19112;51.076;3.706;2023-01-15T03:37:22;13.52;;;2.42;;
32734;SDS011;19112;51.076;3.706;2023-01-15T03:39:51;21.08;;;3.28;;
32734;SDS011;19112;51.076;3.706;2023-01-15T03:45:36;19.35;;;3.03;;
32734;SDS011;19112;51.076;3.706;2023-01-15T03:51:47;24.90;;;3.63;;
32734;SDS011;19112;51.076;3.706;2023-01-15T03:54:23;22.08;;;3.35;;
32734;SDS011;19112;51.076;3.706;2023-01-15T04:00:03;19.85;;;3.33;;
32734;SDS011;19112;51.076;3.706;2023-01-15T04:02:38;16.90;;;2.45;;
32734;SDS011;19112;51.076;3.706;2023-01-15T04:05:04;19.98;;;3.30;;
32734;SDS011;19112;51.076;3.706;2023-01-15T04:07:31;19.23;;;3.25;;
32734;SDS011;19112;51.076;3.706;2023-01-15T04:09:57;18.58;;;2.95;;
32734;SDS011;19112;51.076;3.706;2023-01-15T04:12:23;13.80;;;2.40;;
32734;SDS011;19112;51.076;3.706;2023-01-15T04:14:52;17.85;;;2.85;;
32734;SDS011;19112;51.076;3.706;2023-01-15T04:17:17;17.52;;;2.60;;
32734;SDS011;19112;51.076;3.706;2023-01-15T04:19:43;14.02;;;2.28;;
32734;SDS011;19112;51.076;3.706;2023-01-15T04:22:09;19.60;;;2.75;;
32734;SDS011;19112;51.076;3.706;2023-01-15T04:24:36;18.27;;;2.85;;
32734;SDS011;19112;51.076;3.706;2023-01-15T04:27:02;20.88;;;3.60;;
32734;SDS011;19112;51.076;3.706;2023-01-15T04:29:28;15.02;;;2.83;;
32734;SDS011;19112;51.076;3.706;2023-01-15T04:31:54;16.13;;;2.45;;
32734;SDS011;19112;51.076;3.706;2023-01-15T04:34:23;21.58;;;3.15;;
32734;SDS011;19112;51.076;3.706;2023-01-15T04:36:51;16.60;;;2.63;;
32734;SDS011;19112;51.076;3.706;2023-01-15T04:39:17;16.58;;;3.13;;
32734;SDS011;19112;51.076;3.706;2023-01-15T04:41:42;21.52;;;2.40;;
32734;SDS011;19112;51.076;3.706;2023-01-15T04:44:27;11.85;;;2.50;;
32734;SDS011;19112;51.076;3.706;2023-01-15T04:46:53;18.15;;;2.60;;
32734;SDS011;19112;51.076;3.706;2023-01-15T04:49:22;16.77;;;2.92;;
32734;SDS011;19112;51.076;3.706;2023-01-15T04:51:49;18.63;;;2.28;;
32734;SDS011;19112;51.076;3.706;2023-01-15T04:54:15;18.73;;;3.15;;
32734;SDS011;19112;51.076;3.706;2023-01-15T04:56:43;15.35;;;2.38;;
32734;SDS011;19112;51.076;3.706;2023-01-15T05:01:44;21.13;;;2.53;;
32734;SDS011;19112;51.076;3.706;2023-01-15T05:04:10;18.50;;;2.50;;
32734;SDS011;19112;51.076;3.706;2023-01-15T05:06:36;15.82;;;2.30;;
32734;SDS011;19112;51.076;3.706;2023-01-15T05:09:02;20.05;;;2.85;;
32734;SDS011;19112;51.076;3.706;2023-01-15T05:11:29;18.17;;;2.20;;
32734;SDS011;19112;51.076;3.706;2023-01-15T05:13:55;11.63;;;2.28;;
32734;SDS011;19112;51.076;3.706;2023-01-15T05:16:22;11.80;;;2.63;;
32734;SDS011;19112;51.076;3.706;2023-01-15T05:18:51;13.35;;;2.50;;
32734;SDS011;19112;51.076;3.706;2023-01-15T05:21:22;17.08;;;2.25;;
32734;SDS011;19112;51.076;3.706;2023-01-15T05:23:50;17.48;;;2.08;;
32734;SDS011;19112;51.076;3.706;2023-01-15T05:26:19;15.52;;;2.42;;
32734;SDS011;19112;51.076;3.706;2023-01-15T05:28:45;15.57;;;2.53;;
32734;SDS011;19112;51.076;3.706;2023-01-15T05:31:13;14.55;;;3.88;;
32734;SDS011;19112;51.076;3.706;2023-01-15T05:33:41;14.13;;;2.20;;
32734;SDS011;19112;51.076;3.706;2023-01-15T05:36:12;17.10;;;2.53;;
32734;SDS011;19112;51.076;3.706;2023-01-15T05:38:41;22.67;;;2.42;;
32734;SDS011;19112;51.076;3.706;2023-01-15T05:41:08;14.38;;;2.20;;
32734;SDS011;19112;51.076;3.706;2023-01-15T05:43:58;20.35;;;2.00;;
32734;SDS011;19112;51.076;3.706;2023-01-15T05:46:26;13.43;;;1.90;;
32734;SDS011;19112;51.076;3.706;2023-01-15T05:48:52;10.35;;;1.67;;
32734;SDS011;19112;51.076;3.706;2023-01-15T05:51:18;16.67;;;2.35;;
32734;SDS011;19112;51.076;3.706;2023-01-15T05:53:44;6.70;;;1.55;;
32734;SDS011;19112;51.076;3.706;2023-01-15T05:56:10;14.05;;;2.05;;
32734;SDS011;19112;51.076;3.706;2023-01-15T05:58:36;11.05;;;2.13;;
32734;SDS011;19112;51.076;3.706;2023-01-15T06:01:09;18.95;;;2.22;;
32734;SDS011;19112;51.076;3.706;2023-01-15T06:03:35;10.10;;;1.80;;
32734;SDS011;19112;51.076;3.706;2023-01-15T06:06:02;12.50;;;1.90;;
32734;SDS011;19112;51.076;3.706;2023-01-15T06:08:28;17.30;;;2.08;;
32734;SDS011;19112;51.076;3.706;2023-01-15T06:10:54;13.25;;;2.20;;
32734;SDS011;19112;51.076;3.706;2023-01-15T06:13:20;9.48;;;1.90;;
32734;SDS011;19112;51.076;3.706;2023-01-15T06:15:46;12.13;;;2.38;;
32734;SDS011;19112;51.076;3.706;2023-01-15T06:18:12;20.13;;;4.55;;
32734;SDS011;19112;51.076;3.706;2023-01-15T06:20:39;15.80;;;4.72;;
32734;SDS011;19112;51.076;3.706;2023-01-15T06:23:07;21.63;;;4.60;;
32734;SDS011;19112;51.076;3.706;2023-01-15T06:25:33;18.42;;;4.40;;
32734;SDS011;19112;51.076;3.706;2023-01-15T06:28:04;15.88;;;3.58;;
32734;SDS011;19112;51.076;3.706;2023-01-15T06:30:31;15.23;;;3.58;;
32734;SDS011;19112;51.076;3.706;2023-01-15T06:32:59;22.73;;;3.50;;
32734;SDS011;19112;51.076;3.706;2023-01-15T06:35:25;15.77;;;3.33;;
32734;SDS011;19112;51.076;3.706;2023-01-15T06:37:51;22.67;;;3.33;;
32734;SDS011;19112;51.076;3.706;2023-01-15T06:40:17;11.30;;;2.30;;
32734;SDS011;19112;51.076;3.706;2023-01-15T06:42:43;17.25;;;2.88;;
32734;SDS011;19112;51.076;3.706;2023-01-15T06:45:31;15.15;;;2.63;;
32734;SDS011;19112;51.076;3.706;2023-01-15T06:48:21;13.35;;;2.17;;
32734;SDS011;19112;51.076;3.706;2023-01-15T06:50:48;20.00;;;3.35;;
32734;SDS011;19112;51.076;3.706;2023-01-15T06:53:14;15.88;;;2.88;;
32734;SDS011;19112;51.076;3.706;2023-01-15T06:55:40;17.15;;;2.65;;
32734;SDS011;19112;51.076;3.706;2023-01-15T06:58:06;20.77;;;3.20;;
32734;SDS011;19112;51.076;3.706;2023-01-15T07:00:32;20.55;;;3.13;;
32734;SDS011;19112;51.076;3.706;2023-01-15T07:03:01;19.70;;;3.17;;
32734;SDS011;19112;51.076;3.706;2023-01-15T07:05:28;21.25;;;3.15;;
32734;SDS011;19112;51.076;3.706;2023-01-15T07:07:56;16.35;;;3.47;;
32734;SDS011;19112;51.076;3.706;2023-01-15T07:10:22;18.05;;;2.72;;
32734;SDS011;19112;51.076;3.706;2023-01-15T07:12:49;17.50;;;3.15;;
32734;SDS011;19112;51.076;3.706;2023-01-15T07:15:15;15.32;;;2.45;;
32734;SDS011;19112;51.076;3.706;2023-01-15T07:17:40;19.25;;;2.95;;
32734;SDS011;19112;51.076;3.706;2023-01-15T07:20:07;19.90;;;2.78;;
32734;SDS011;19112;51.076;3.706;2023-01-15T07:22:34;16.10;;;2.90;;
32734;SDS011;19112;51.076;3.706;2023-01-15T07:25:00;17.73;;;2.67;;
32734;SDS011;19112;51.076;3.706;2023-01-15T07:27:26;16.98;;;4.13;;
32734;SDS011;19112;51.076;3.706;2023-01-15T07:29:51;18.33;;;2.67;;
32734;SDS011;19112;51.076;3.706;2023-01-15T07:32:18;19.65;;;2.88;;
32734;SDS011;19112;51.076;3.706;2023-01-15T07:34:44;19.55;;;3.10;;
32734;SDS011;19112;51.076;3.706;2023-01-15T07:37:09;17.20;;;3.17;;
32734;SDS011;19112;51.076;3.706;2023-01-15T07:39:35;20.17;;;2.90;;
32734;SDS011;19112;51.076;3.706;2023-01-15T07:42:01;21.33;;;3.03;;
32734;SDS011;19112;51.076;3.706;2023-01-15T07:44:46;19.67;;;2.88;;
32734;SDS011;19112;51.076;3.706;2023-01-15T07:47:32;24.50;;;3.03;;
32734;SDS011;19112;51.076;3.706;2023-01-15T07:50:17;14.02;;;2.53;;
32734;SDS011;19112;51.076;3.706;2023-01-15T07:52:46;24.58;;;2.90;;
32734;SDS011;19112;51.076;3.706;2023-01-15T07:55:12;17.85;;;3.33;;
32734;SDS011;19112;51.076;3.706;2023-01-15T07:57:39;20.58;;;2.53;;
32734;SDS011;19112;51.076;3.706;2023-01-15T08:00:07;24.73;;;2.55;;
32734;SDS011;19112;51.076;3.706;2023-01-15T08:02:44;11.05;;;2.42;;
32734;SDS011;19112;51.076;3.706;2023-01-15T08:05:13;15.20;;;2.65;;
32734;SDS011;19112;51.076;3.706;2023-01-15T08:07:40;13.45;;;2.30;;
32734;SDS011;19112;51.076;3.706;2023-01-15T08:10:07;18.38;;;2.67;;
32734;SDS011;19112;51.076;3.706;2023-01-15T08:12:35;15.25;;;2.42;;
32734;SDS011;19112;51.076;3.706;2023-01-15T08:15:20;17.48;;;2.42;;
32734;SDS011;19112;51.076;3.706;2023-01-15T08:17:47;22.65;;;2.80;;
32734;SDS011;19112;51.076;3.706;2023-01-15T08:20:20;13.73;;;2.42;;
32734;SDS011;19112;51.076;3.706;2023-01-15T08:22:48;20.35;;;3.13;;
32734;SDS011;19112;51.076;3.706;2023-01-15T08:25:15;13.55;;;2.13;;
32734;SDS011;19112;51.076;3.706;2023-01-15T08:27:44;19.75;;;2.65;;
32734;SDS011;19112;51.076;3.706;2023-01-15T08:30:12;22.30;;;3.03;;
32734;SDS011;19112;51.076;3.706;2023-01-15T08:35:09;15.20;;;2.97;;
32734;SDS011;19112;51.076;3.706;2023-01-15T08:37:37;14.95;;;2.42;;
32734;SDS011;19112;51.076;3.706;2023-01-15T08:40:04;19.98;;;3.70;;
32734;SDS011;19112;51.076;3.706;2023-01-15T08:42:31;18.08;;;2.40;;
32734;SDS011;19112;51.076;3.706;2023-01-15T08:44:58;17.83;;;2.53;;
32734;SDS011;19112;51.076;3.706;2023-01-15T08:47:23;17.85;;;3.25;;
32734;SDS011;19112;51.076;3.706;2023-01-15T08:49:49;13.32;;;2.22;;
32734;SDS011;19112;51.076;3.706;2023-01-15T08:52:15;17.65;;;2.80;;
32734;SDS011;19112;51.076;3.706;2023-01-15T08:54:41;15.13;;;2.80;;
32734;SDS011;19112;51.076;3.706;2023-01-15T08:57:07;22.23;;;3.22;;
32734;SDS011;19112;51.076;3.706;2023-01-15T08:59:35;19.88;;;2.75;;
32734;SDS011;19112;51.076;3.706;2023-01-15T09:02:02;18.98;;;2.72;;
32734;SDS011;19112;51.076;3.706;2023-01-15T09:04:28;17.50;;;3.92;;
32734;SDS011;19112;51.076;3.706;2023-01-15T09:06:54;14.07;;;2.95;;
32734;SDS011;19112;51.076;3.706;2023-01-15T09:09:20;22.90;;;3.17;;
32734;SDS011;19112;51.076;3.706;2023-01-15T09:11:46;18.08;;;3.10;;
32734;SDS011;19112;51.076;3.706;2023-01-15T09:14:12;19.67;;;2.97;;
32734;SDS011;19112;51.076;3.706;2023-01-15T09:16:39;21.58;;;3.08;;
32734;SDS011;19112;51.076;3.706;2023-01-15T09:19:06;19.08;;;3.33;;
32734;SDS011;19112;51.076;3.706;2023-01-15T09:21:34;24.42;;;3.97;;
32734;SDS011;19112;51.076;3.706;2023-01-15T09:23:59;20.48;;;2.88;;
32734;SDS011;19112;51.076;3.706;2023-01-15T09:28:52;18.73;;;2.97;;
32734;SDS011;19112;51.076;3.706;2023-01-15T09:31:19;10.90;;;2.20;;
32734;SDS011;19112;51.076;3.706;2023-01-15T09:33:46;18.92;;;2.38;;
32734;SDS011;19112;51.076;3.706;2023-01-15T09:36:15;9.50;;;2.20;;
32734;SDS011;19112;51.076;3.706;2023-01-15T09:38:49;14.05;;;2.30;;
32734;SDS011;19112;51.076;3.706;2023-01-15T09:41:14;13.48;;;2.70;;
32734;SDS011;19112;51.076;3.706;2023-01-15T09:55:23;12.00;;;1.67;;
32734;SDS011;19112;51.076;3.706;2023-01-15T09:57:58;11.80;;;2.17;;
32734;SDS011;19112;51.076;3.706;2023-01-15T10:00:32;10.30;;;1.48;;
32734;SDS011;19112;51.076;3.706;2023-01-15T10:03:24;5.20;;;1.20;;
32734;SDS011;19112;51.076;3.706;2023-01-15T10:06:40;10.45;;;2.22;;
32734;SDS011;19112;51.076;3.706;2023-01-15T10:09:22;14.32;;;1.67;;
32734;SDS011;19112;51.076;3.706;2023-01-15T10:11:59;13.77;;;1.95;;
32734;SDS011;19112;51.076;3.706;2023-01-15T10:15:15;11.23;;;1.23;;
32734;SDS011;19112;51.076;3.706;2023-01-15T10:18:02;8.75;;;1.63;;
32734;SDS011;19112;51.076;3.706;2023-01-15T10:34:24;12.95;;;2.95;;
32734;SDS011;19112;51.076;3.706;2023-01-15T10:37:23;13.90;;;3.28;;
32734;SDS011;19112;51.076;3.706;2023-01-15T10:40:20;7.60;;;2.20;;
32734;SDS011;19112;51.076;3.706;2023-01-15T10:43:18;13.18;;;2.00;;
32734;SDS011;19112;51.076;3.706;2023-01-15T10:46:32;7.95;;;2.20;;
32734;SDS011;19112;51.076;3.706;2023-01-15T10:49:10;15.63;;;4.63;;
32734;SDS011;19112;51.076;3.706;2023-01-15T10:51:44;11.60;;;2.78;;
32734;SDS011;19112;51.076;3.706;2023-01-15T10:56:59;11.73;;;2.10;;
32734;SDS011;19112;51.076;3.706;2023-01-15T10:59:39;16.67;;;3.35;;
32734;SDS011;19112;51.076;3.706;2023-01-15T11:05:00;16.13;;;2.90;;
32734;SDS011;19112;51.076;3.706;2023-01-15T11:07:37;11.13;;;2.45;;
32734;SDS011;19112;51.076;3.706;2023-01-15T11:10:09;14.80;;;3.00;;
32734;SDS011;19112;51.076;3.706;2023-01-15T11:12:49;17.20;;;3.17;;
32734;SDS011;19112;51.076;3.706;2023-01-15T11:15:39;16.38;;;2.40;;
32734;SDS011;19112;51.076;3.706;2023-01-15T11:18:32;13.65;;;2.40;;
32734;SDS011;19112;51.076;3.706;2023-01-15T11:21:23;14.43;;;2.58;;
32734;SDS011;19112;51.076;3.706;2023-01-15T11:23:49;18.40;;;3.55;;
32734;SDS011;19112;51.076;3.706;2023-01-15T11:26:38;11.82;;;2.35;;
32734;SDS011;19112;51.076;3.706;2023-01-15T11:29:11;13.95;;;2.33;;
32734;SDS011;19112;51.076;3.706;2023-01-15T11:32:00;14.23;;;2.47;;
32734;SDS011;19112;51.076;3.706;2023-01-15T11:34:26;11.73;;;2.63;;
32734;SDS011;19112;51.076;3.706;2023-01-15T11:37:02;11.68;;;3.03;;
32734;SDS011;19112;51.076;3.706;2023-01-15T11:39:29;12.02;;;2.60;;
32734;SDS011;19112;51.076;3.706;2023-01-15T11:42:05;15.02;;;2.72;;
32734;SDS011;19112;51.076;3.706;2023-01-15T11:44:58;8.85;;;2.38;;
32734;SDS011;19112;51.076;3.706;2023-01-15T11:47:50;9.60;;;2.20;;
32734;SDS011;19112;51.076;3.706;2023-01-15T11:50:38;8.20;;;2.15;;
32734;SDS011;19112;51.076;3.706;2023-01-15T11:53:16;11.02;;;1.65;;
32734;SDS011;19112;51.076;3.706;2023-01-15T11:55:56;8.90;;;2.10;;
32734;SDS011;19112;51.076;3.706;2023-01-15T11:58:32;10.63;;;2.10;;
32734;SDS011;19112;51.076;3.706;2023-01-15T12:01:55;15.50;;;2.65;;
32734;SDS011;19112;51.076;3.706;2023-01-15T12:04:26;12.18;;;2.53;;
32734;SDS011;19112;51.076;3.706;2023-01-15T12:06:55;14.43;;;2.33;;
32734;SDS011;19112;51.076;3.706;2023-01-15T12:09:28;11.80;;;2.10;;
32734;SDS011;19112;51.076;3.706;2023-01-15T12:18:15;11.05;;;2.30;;
32734;SDS011;19112;51.076;3.706;2023-01-15T12:24:05;11.73;;;2.30;;
32734;SDS011;19112;51.076;3.706;2023-01-15T12:26:37;8.63;;;2.10;;
32734;SDS011;19112;51.076;3.706;2023-01-15T12:31:54;12.98;;;2.85;;
32734;SDS011;19112;51.076;3.706;2023-01-15T12:37:33;10.32;;;2.45;;
32734;SDS011;19112;51.076;3.706;2023-01-15T12:42:44;10.23;;;3.20;;
32734;SDS011;19112;51.076;3.706;2023-01-15T12:45:33;15.30;;;3.50;;
32734;SDS011;19112;51.076;3.706;2023-01-15T12:48:28;12.95;;;4.15;;
32734;SDS011;19112;51.076;3.706;2023-01-15T12:51:12;12.75;;;1.92;;
32734;SDS011;19112;51.076;3.706;2023-01-15T12:53:50;14.85;;;3.53;;
32734;SDS011;19112;51.076;3.706;2023-01-15T13:05:15;12.10;;;2.20;;
32734;SDS011;19112;51.076;3.706;2023-01-15T13:08:02;12.43;;;2.30;;
32734;SDS011;19112;51.076;3.706;2023-01-15T13:10:59;10.65;;;2.17;;
32734;SDS011;19112;51.076;3.706;2023-01-15T13:13:35;12.77;;;2.70;;
32734;SDS011;19112;51.076;3.706;2023-01-15T13:21:35;15.55;;;2.90;;
32734;SDS011;19112;51.076;3.706;2023-01-15T13:24:23;8.35;;;2.30;;
32734;SDS011;19112;51.076;3.706;2023-01-15T13:33:03;11.93;;;2.65;;
32734;SDS011;19112;51.076;3.706;2023-01-15T13:35:47;12.00;;;2.63;;
32734;SDS011;19112;51.076;3.706;2023-01-15T13:38:19;10.13;;;3.08;;
32734;SDS011;19112;51.076;3.706;2023-01-15T13:40:51;10.70;;;3.30;;
32734;SDS011;19112;51.076;3.706;2023-01-15T13:43:31;10.18;;;2.83;;
32734;SDS011;19112;51.076;3.706;2023-01-15T13:46:10;14.13;;;3.30;;
32734;SDS011;19112;51.076;3.706;2023-01-15T13:48:50;8.25;;;2.20;;
32734;SDS011;19112;51.076;3.706;2023-01-15T13:51:25;11.32;;;2.83;;
32734;SDS011;19112;51.076;3.706;2023-01-15T13:53:55;9.95;;;3.08;;
32734;SDS011;19112;51.076;3.706;2023-01-15T13:56:28;12.23;;;3.50;;
32734;SDS011;19112;51.076;3.706;2023-01-15T13:58:57;13.88;;;3.42;;
32734;SDS011;19112;51.076;3.706;2023-01-15T14:03:58;12.48;;;3.95;;
32734;SDS011;19112;51.076;3.706;2023-01-15T14:06:37;10.10;;;3.13;;
32734;SDS011;19112;51.076;3.706;2023-01-15T14:23:23;11.63;;;3.10;;
32734;SDS011;19112;51.076;3.706;2023-01-15T14:34:52;12.50;;;3.15;;
32734;SDS011;19112;51.076;3.706;2023-01-15T14:40:47;11.00;;;2.80;;
32734;SDS011;19112;51.076;3.706;2023-01-15T14:43:16;15.50;;;3.17;;
32734;SDS011;19112;51.076;3.706;2023-01-15T14:45:45;8.82;;;3.03;;
32734;SDS011;19112;51.076;3.706;2023-01-15T14:50:52;17.13;;;3.25;;
32734;SDS011;19112;51.076;3.706;2023-01-15T14:53:41;12.30;;;2.63;;
32734;SDS011;19112;51.076;3.706;2023-01-15T14:56:15;10.77;;;4.03;;
32734;SDS011;19112;51.076;3.706;2023-01-15T15:01:26;12.68;;;3.17;;
32734;SDS011;19112;51.076;3.706;2023-01-15T15:07:12;17.63;;;3.88;;
32734;SDS011;19112;51.076;3.706;2023-01-15T15:12:43;19.48;;;5.18;;
32734;SDS011;19112;51.076;3.706;2023-01-15T15:15:58;12.98;;;3.10;;
32734;SDS011;19112;51.076;3.706;2023-01-15T15:18:54;8.25;;;2.58;;
32734;SDS011;19112;51.076;3.706;2023-01-15T15:21:32;10.40;;;2.50;;
32734;SDS011;19112;51.076;3.706;2023-01-15T15:30:06;8.95;;;2.20;;
32734;SDS011;19112;51.076;3.706;2023-01-15T15:32:35;6.35;;;2.63;;
32734;SDS011;19112;51.076;3.706;2023-01-15T15:35:10;10.32;;;3.03;;
32734;SDS011;19112;51.076;3.706;2023-01-15T15:37:50;6.68;;;2.40;;
32734;SDS011;19112;51.076;3.706;2023-01-15T15:40:16;6.05;;;1.60;;
32734;SDS011;19112;51.076;3.706;2023-01-15T15:43:10;6.30;;;1.65;;
32734;SDS011;19112;51.076;3.706;2023-01-15T15:46:21;4.28;;;1.67;;
32734;SDS011;19112;51.076;3.706;2023-01-15T15:49:15;6.28;;;1.88;;
32734;SDS011;19112;51.076;3.706;2023-01-15T15:54:24;8.77;;;1.83;;
32734;SDS011;19112;51.076;3.706;2023-01-15T15:59:33;5.90;;;1.77;;
32734;SDS011;19112;51.076;3.706;2023-01-15T16:02:30;6.70;;;1.85;;
32734;SDS011;19112;51.076;3.706;2023-01-15T16:05:01;4.90;;;1.80;;
32734;SDS011;19112;51.076;3.706;2023-01-15T16:07:40;6.10;;;1.92;;
32734;SDS011;19112;51.076;3.706;2023-01-15T16:12:46;9.70;;;2.60;;
32734;SDS011;19112;51.076;3.706;2023-01-15T16:15:21;10.45;;;1.92;;
32734;SDS011;19112;51.076;3.706;2023-01-15T16:17:53;5.22;;;1.80;;
32734;SDS011;19112;51.076;3.706;2023-01-15T16:20:22;4.72;;;2.00;;
32734;SDS011;19112;51.076;3.706;2023-01-15T16:22:59;10.13;;;2.45;;
32734;SDS011;19112;51.076;3.706;2023-01-15T16:28:04;10.65;;;2.25;;
32734;SDS011;19112;51.076;3.706;2023-01-15T16:30:31;6.25;;;2.20;;
32734;SDS011;19112;51.076;3.706;2023-01-15T16:33:01;7.00;;;2.33;;
32734;SDS011;19112;51.076;3.706;2023-01-15T16:35:32;10.13;;;3.05;;
32734;SDS011;19112;51.076;3.706;2023-01-15T16:38:01;5.68;;;2.40;;
32734;SDS011;19112;51.076;3.706;2023-01-15T16:40:29;9.48;;;3.08;;
32734;SDS011;19112;51.076;3.706;2023-01-15T16:43:09;5.63;;;2.00;;
32734;SDS011;19112;51.076;3.706;2023-01-15T16:45:40;9.45;;;2.50;;
32734;SDS011;19112;51.076;3.706;2023-01-15T16:50:47;21.30;;;6.38;;
32734;SDS011;19112;51.076;3.706;2023-01-15T16:56:05;17.85;;;6.30;;
32734;SDS011;19112;51.076;3.706;2023-01-15T16:59:02;11.73;;;3.28;;
32734;SDS011;19112;51.076;3.706;2023-01-15T17:09:31;21.83;;;7.40;;
32734;SDS011;19112;51.076;3.706;2023-01-15T17:12:23;16.55;;;4.95;;
32734;SDS011;19112;51.076;3.706;2023-01-15T17:17:41;15.63;;;4.93;;
32734;SDS011;19112;51.076;3.706;2023-01-15T17:20:10;14.07;;;4.32;;
32734;SDS011;19112;51.076;3.706;2023-01-15T17:22:37;16.48;;;4.93;;
32734;SDS011;19112;51.076;3.706;2023-01-15T17:28:00;14.75;;;5.22;;
32734;SDS011;19112;51.076;3.706;2023-01-15T17:30:28;20.50;;;6.18;;
32734;SDS011;19112;51.076;3.706;2023-01-15T17:32:55;19.38;;;6.75;;
32734;SDS011;19112;51.076;3.706;2023-01-15T17:35:27;24.13;;;12.07;;
32734;SDS011;19112;51.076;3.706;2023-01-15T17:40:24;20.38;;;6.95;;
32734;SDS011;19112;51.076;3.706;2023-01-15T17:42:51;19.13;;;5.70;;
32734;SDS011;19112;51.076;3.706;2023-01-15T17:45:25;21.77;;;5.75;;
32734;SDS011;19112;51.076;3.706;2023-01-15T17:47:53;22.45;;;6.68;;
32734;SDS011;19112;51.076;3.706;2023-01-15T17:50:19;17.48;;;6.82;;
32734;SDS011;19112;51.076;3.706;2023-01-15T17:52:46;18.38;;;6.53;;
32734;SDS011;19112;51.076;3.706;2023-01-15T17:55:20;18.40;;;6.30;;
32734;SDS011;19112;51.076;3.706;2023-01-15T18:03:49;17.65;;;6.45;;
32734;SDS011;19112;51.076;3.706;2023-01-15T18:06:35;18.60;;;5.68;;
32734;SDS011;19112;51.076;3.706;2023-01-15T18:09:03;18.75;;;5.20;;
32734;SDS011;19112;51.076;3.706;2023-01-15T18:11:31;16.58;;;4.95;;
32734;SDS011;19112;51.076;3.706;2023-01-15T18:13:57;14.77;;;5.80;;
32734;SDS011;19112;51.076;3.706;2023-01-15T18:16:23;19.55;;;5.85;;
32734;SDS011;19112;51.076;3.706;2023-01-15T18:18:53;19.55;;;5.93;;
32734;SDS011;19112;51.076;3.706;2023-01-15T18:21:19;21.80;;;6.05;;